Overview Statistics Trail Chart Weather Telemetry Raw packets
 

This is the latest recevied weather packets stored in our database for station/object KB8TTR. If no packets are shown the sender has not sent any weather packets the latest 10 day(s).

<< 83 84 85 86 87 88 89 >>
Time Temp. Humidity Pressure Rain* Wind** Luminosity Snow
1788007639 19.44° C 68% 1024.5 hPa 0 mm - 236 W/m² -
1788007334 19.44° C 69% 1024.4 hPa 0 mm - 192 W/m² -
1788007029 18.89° C 68% 1024.5 hPa 0 mm - 169 W/m² -
1788006728 18.89° C 70% 1024.4 hPa 0 mm - 104 W/m² -
1788006423 18.89° C 70% 1024.3 hPa 0 mm - 138 W/m² -
1788006122 18.33° C 72% 1024.2 hPa 0 mm - 84 W/m² -
1788005821 18.33° C 73% 1024.5 hPa 0 mm - 76 W/m² -
1788005516 17.78° C 74% 1024.5 hPa 0 mm - 62 W/m² -
1788005216 17.78° C 74% 1024.3 hPa 0 mm - 48 W/m² -
1788004910 18.33° C 73% 1024.4 hPa 0 mm - 47 W/m² -
1788004609 18.89° C 71% 1024.2 hPa 0 mm - 42 W/m² -
1788004309 18.33° C 77% 1024.4 hPa 0 mm - 37 W/m² -
1788004009 17.22° C 83% 1024.2 hPa 0 mm - 32 W/m² -
1788003707 16.67° C 89% 1024.2 hPa 0 mm - 28 W/m² -
1788003403 15.56° C 95% 1024.1 hPa 0 mm - 24 W/m² -
1788003103 14.44° C 96% 1024.1 hPa 0 mm - 21 W/m² -
1788002803 13.89° C 96% 1024 hPa 0 mm - 18 W/m² -
1788002498 13.33° C 97% 1023.9 hPa 0 mm - 15 W/m² -
1788002194 12.78° C 96% 1023.6 hPa 0 mm - 12 W/m² -
1788001893 12.78° C 96% 1023.6 hPa 0 mm - 10 W/m² -
1788001589 12.78° C 96% 1023.3 hPa 0 mm - 7 W/m² -
1788001284 12.78° C 96% 1023.4 hPa 0 mm - 5 W/m² -
1788000983 12.78° C 96% 1023.5 hPa 0 mm - 3 W/m² -
1788000679 12.78° C 96% 1023.6 hPa 0 mm - 1 W/m² -
1788000374 12.78° C 96% 1023.6 hPa 0 mm - 1 W/m² -

* Rain latest hour (hover to see other rain measurements)
** Current wind speed in m/s (hover to see current wind gust speed)